Time,TemperatureF,DewpointF,PressureIn,WindDirection,WindDirectionDegrees,WindSpeedMPH,WindSpeedGustMPH,Humidity,HourlyPrecipIn,Conditions,Clouds,dailyrainin,SolarRadiationWatts/m^2,SoftwareType,DateUTC
2013-03-23 00:00:00,32.9,20.5,30.04,ENE,72,1.0,3.0,60,0.00,,,0.00,0,Wunderground v.1.15,2013-03-23 05:00:00,
2013-03-23 00:10:00,32.9,20.1,30.04,ENE,72,1.0,1.0,59,0.00,,,0.00,0,Wunderground v.1.15,2013-03-23 05:10:00,
2013-03-23 00:20:00,32.8,20.4,30.05,ENE,72,0.0,0.0,60,0.00,,,0.00,0,Wunderground v.1.15,2013-03-23 05:20:00,
2013-03-23 00:30:00,32.7,20.7,30.05,ENE,72,0.0,0.0,61,0.00,,,0.00,0,Wunderground v.1.15,2013-03-23 05:30:00,
2013-03-23 00:40:00,32.7,19.9,30.06,ENE,72,0.0,0.0,59,0.00,,,0.00,0,Wunderground v.1.15,2013-03-23 05:40:00,
2013-03-23 00:50:00,32.7,19.9,30.07,ENE,72,0.0,0.0,59,0.00,,,0.00,0,Wunderground v.1.15,2013-03-23 05:50:00,
2013-03-23 01:00:00,32.5,20.9,30.07,ENE,72,0.0,0.0,62,0.00,,,0.00,0,Wunderground v.1.15,2013-03-23 06:00:00,
2013-03-23 01:10:00,32.2,20.6,30.06,ENE,72,0.0,0.0,62,0.00,,,0.00,0,Wunderground v.1.15,2013-03-23 06:10:00,
2013-03-23 01:20:00,31.9,21.1,30.06,ENE,72,0.0,0.0,64,0.00,,,0.00,0,Wunderground v.1.15,2013-03-23 06:20:00,
2013-03-23 01:30:00,31.9,21.1,30.06,ENE,72,0.0,0.0,64,0.00,,,0.00,0,Wunderground v.1.15,2013-03-23 06:30:00,
2013-03-23 01:40:00,31.8,21.0,30.06,ENE,72,0.0,0.0,64,0.00,,,0.00,0,Wunderground v.1.15,2013-03-23 06:40:00,
2013-03-23 01:50:00,31.6,21.5,30.06,ENE,72,0.0,0.0,66,0.00,,,0.00,0,Wunderground v.1.15,2013-03-23 06:50:00,
2013-03-23 02:00:00,31.9,21.1,30.06,ENE,72,0.0,0.0,64,0.00,,,0.00,0,Wunderground v.1.15,2013-03-23 07:00:00,
2013-03-23 02:10:00,32.1,21.3,30.06,ENE,72,0.0,0.0,64,0.00,,,0.00,0,Wunderground v.1.15,2013-03-23 07:10:00,
2013-03-23 02:20:00,32.1,21.3,30.07,ENE,72,0.0,0.0,64,0.00,,,0.00,0,Wunderground v.1.15,2013-03-23 07:20:00,
2013-03-23 02:30:00,32.1,21.7,30.07,ENE,72,0.0,3.0,65,0.00,,,0.00,0,Wunderground v.1.15,2013-03-23 07:30:00,
2013-03-23 02:40:00,32.2,21.7,30.08,ENE,72,1.0,1.0,65,0.00,,,0.00,0,Wunderground v.1.15,2013-03-23 07:40:00,
2013-03-23 02:50:00,32.1,22.0,30.08,ENE,72,0.0,2.0,66,0.00,,,0.00,0,Wunderground v.1.15,2013-03-23 07:50:00,
2013-03-23 03:00:00,32.2,22.8,30.08,ENE,63,4.0,5.0,68,0.00,,,0.00,0,Wunderground v.1.15,2013-03-23 08:00:00,
2013-03-23 03:10:00,31.9,22.9,30.08,NE,56,5.0,5.0,69,0.00,,,0.00,0,Wunderground v.1.15,2013-03-23 08:10:00,
2013-03-23 03:20:00,31.5,22.8,30.07,NE,56,4.0,4.0,70,0.00,,,0.00,0,Wunderground v.1.15,2013-03-23 08:20:00,
2013-03-23 03:30:00,31.5,23.5,30.07,NE,55,4.0,4.0,72,0.00,,,0.00,0,Wunderground v.1.15,2013-03-23 08:30:00,
2013-03-23 03:40:00,31.5,23.5,30.07,NE,55,4.0,4.0,72,0.00,,,0.00,0,Wunderground v.1.15,2013-03-23 08:40:00,
2013-03-23 03:50:00,31.5,23.5,30.06,ENE,60,4.0,4.0,72,0.00,,,0.00,0,Wunderground v.1.15,2013-03-23 08:50:00,
2013-03-23 04:00:00,31.5,23.5,30.06,ENE,69,5.0,7.0,72,0.00,,,0.00,0,Wunderground v.1.15,2013-03-23 09:00:00,
2013-03-23 04:10:00,31.3,23.6,30.05,ENE,71,5.0,5.0,73,0.00,,,0.00,0,Wunderground v.1.15,2013-03-23 09:10:00,
2013-03-23 04:20:00,31.2,23.9,30.04,East,80,6.0,6.0,74,0.00,,,0.00,0,Wunderground v.1.15,2013-03-23 09:20:00,
2013-03-23 04:30:00,31.2,23.9,30.04,ENE,74,5.0,5.0,74,0.00,,,0.00,0,Wunderground v.1.15,2013-03-23 09:30:00,
2013-03-23 04:40:00,31.3,24.0,30.05,ENE,60,4.0,4.0,74,0.00,,,0.00,0,Wunderground v.1.15,2013-03-23 09:40:00,
2013-03-23 04:50:00,31.3,24.0,30.06,ENE,60,4.0,6.0,74,0.00,,,0.00,0,Wunderground v.1.15,2013-03-23 09:50:00,
2013-03-23 05:00:00,31.3,23.6,30.06,NE,49,4.0,6.0,73,0.00,,,0.00,0,Wunderground v.1.15,2013-03-23 10:00:00,
2013-03-23 05:10:00,31.3,23.6,30.06,NE,46,5.0,5.0,73,0.00,,,0.00,0,Wunderground v.1.15,2013-03-23 10:10:00,
2013-03-23 05:20:00,31.2,23.5,30.08,NE,46,3.0,3.0,73,0.00,,,0.00,0,Wunderground v.1.15,2013-03-23 10:20:00,
2013-03-23 05:30:00,31.2,23.9,30.08,NE,46,1.0,1.0,74,0.00,,,0.00,0,Wunderground v.1.15,2013-03-23 10:30:00,
2013-03-23 05:40:00,31.2,23.9,30.08,NE,46,0.0,0.0,74,0.00,,,0.00,0,Wunderground v.1.15,2013-03-23 10:40:00,
2013-03-23 05:49:00,31.2,23.9,30.09,NE,46,0.0,0.0,74,0.00,,,0.00,0,Wunderground v.1.15,2013-03-23 10:49:00,
2013-03-23 06:00:00,31.2,24.2,30.09,NE,46,0.0,0.0,75,0.00,,,0.00,0,Wunderground v.1.15,2013-03-23 11:00:00,
2013-03-23 06:10:00,31.2,24.2,30.09,NE,46,0.0,0.0,75,0.00,,,0.00,0,Wunderground v.1.15,2013-03-23 11:10:00,
2013-03-23 06:20:00,31.0,24.0,30.09,NE,46,0.0,0.0,75,0.00,,,0.00,0,Wunderground v.1.15,2013-03-23 11:20:00,
2013-03-23 06:30:00,31.0,24.0,30.09,NE,46,0.0,0.0,75,0.00,,,0.00,0,Wunderground v.1.15,2013-03-23 11:30:00,
2013-03-23 06:40:00,31.0,24.3,30.09,NE,46,1.0,1.0,76,0.00,,,0.00,0,Wunderground v.1.15,2013-03-23 11:40:00,
2013-03-23 06:50:00,31.0,24.3,30.09,NE,42,3.0,6.0,76,0.00,,,0.00,0,Wunderground v.1.15,2013-03-23 11:50:00,
2013-03-23 07:00:00,31.0,24.3,30.09,NE,40,4.0,4.0,76,0.00,,,0.00,0,Wunderground v.1.15,2013-03-23 12:00:00,
2013-03-23 07:10:00,31.0,24.3,30.10,NE,37,4.0,4.0,76,0.00,,,0.00,0,Wunderground v.1.15,2013-03-23 12:10:00,
2013-03-23 07:20:00,31.0,24.6,30.10,NE,41,4.0,5.0,77,0.00,,,0.00,0,Wunderground v.1.15,2013-03-23 12:20:00,
2013-03-23 07:30:00,30.9,24.5,30.10,NE,53,4.0,6.0,77,0.00,,,0.00,0,Wunderground v.1.15,2013-03-23 12:30:00,
2013-03-23 07:40:00,30.7,24.7,30.09,NE,38,5.0,9.0,78,0.00,,,0.00,11,Wunderground v.1.15,2013-03-23 12:40:00,
2013-03-23 07:50:00,30.7,24.7,30.09,NE,46,6.0,6.0,78,0.00,,,0.00,16,Wunderground v.1.15,2013-03-23 12:50:00,
2013-03-23 08:00:00,30.7,24.7,30.09,NE,46,4.0,4.0,78,0.00,,,0.00,21,Wunderground v.1.15,2013-03-23 13:00:00,
2013-03-23 08:10:00,30.9,24.8,30.10,NNE,19,3.0,3.0,78,0.00,,,0.00,33,Wunderground v.1.15,2013-03-23 13:10:00,
2013-03-23 08:20:00,30.9,24.5,30.10,NE,39,5.0,5.0,77,0.00,,,0.00,26,Wunderground v.1.15,2013-03-23 13:20:00,
2013-03-23 08:30:00,30.9,24.8,30.10,ENE,61,4.0,4.0,78,0.00,,,0.00,26,Wunderground v.1.15,2013-03-23 13:30:00,
2013-03-23 08:40:00,30.9,24.8,30.11,NE,48,5.0,7.0,78,0.00,,,0.00,39,Wunderground v.1.15,2013-03-23 13:40:00,
2013-03-23 08:49:00,31.0,24.6,30.10,NE,46,6.0,10.0,77,0.00,,,0.00,81,Wunderground v.1.15,2013-03-23 13:49:00,
2013-03-23 09:00:00,31.3,24.6,30.10,NE,39,8.0,8.0,76,0.00,,,0.00,54,Wunderground v.1.15,2013-03-23 14:00:00,
2013-03-23 09:10:00,31.5,24.5,30.09,NE,37,8.0,8.0,75,0.00,,,0.00,139,Wunderground v.1.15,2013-03-23 14:10:00,
2013-03-23 09:20:00,32.1,24.7,30.10,NE,53,7.0,7.0,74,0.00,,,0.00,165,Wunderground v.1.15,2013-03-23 14:20:00,
2013-03-23 09:30:00,32.7,24.7,30.10,ENE,62,4.0,10.0,72,0.00,,,0.00,160,Wunderground v.1.15,2013-03-23 14:30:00,
2013-03-23 09:40:00,32.5,24.1,30.13,ENE,57,5.0,5.0,71,0.00,,,0.00,128,Wunderground v.1.15,2013-03-23 14:40:00,
2013-03-23 09:50:00,32.8,24.4,30.13,ENE,61,4.0,4.0,71,0.00,,,0.00,123,Wunderground v.1.15,2013-03-23 14:50:00,
2013-03-23 10:00:00,32.9,24.2,30.13,NE,55,3.0,4.0,70,0.00,,,0.00,113,Wunderground v.1.15,2013-03-23 15:00:00,
2013-03-23 10:10:00,33.1,24.4,30.13,ENE,69,5.0,6.0,70,0.00,,,0.00,125,Wunderground v.1.15,2013-03-23 15:10:00,
2013-03-23 10:20:00,33.2,24.8,30.13,NE,44,5.0,6.0,71,0.00,,,0.00,165,Wunderground v.1.15,2013-03-23 15:20:00,
2013-03-23 10:30:00,33.5,24.8,30.13,NE,52,5.0,6.0,70,0.00,,,0.00,163,Wunderground v.1.15,2013-03-23 15:30:00,
2013-03-23 10:40:00,33.5,24.1,30.13,ENE,59,6.0,6.0,68,0.00,,,0.00,146,Wunderground v.1.15,2013-03-23 15:40:00,
2013-03-23 10:50:00,33.7,23.9,30.13,NE,56,6.0,10.0,67,0.00,,,0.00,158,Wunderground v.1.15,2013-03-23 15:50:00,
2013-03-23 11:00:00,33.8,24.4,30.13,NNE,32,8.0,8.0,68,0.00,,,0.00,181,Wunderground v.1.15,2013-03-23 16:00:00,
2013-03-23 11:10:00,34.0,24.2,30.13,NNE,32,7.0,7.0,67,0.00,,,0.00,195,Wunderground v.1.15,2013-03-23 16:10:00,
2013-03-23 11:20:00,34.1,24.6,30.13,NE,47,7.0,7.0,68,0.00,,,0.00,281,Wunderground v.1.15,2013-03-23 16:20:00,
2013-03-23 11:30:00,35.0,24.0,30.13,NE,38,7.0,7.0,64,0.00,,,0.00,338,Wunderground v.1.15,2013-03-23 16:30:00,
2013-03-23 11:40:00,35.2,23.9,30.13,NE,36,6.0,9.0,63,0.00,,,0.00,396,Wunderground v.1.15,2013-03-23 16:40:00,
2013-03-23 11:50:00,35.3,24.0,30.12,NE,51,6.0,6.0,63,0.00,,,0.00,330,Wunderground v.1.15,2013-03-23 16:50:00,
2013-03-23 12:00:00,36.0,24.6,30.12,NE,37,7.0,7.0,63,0.00,,,0.00,397,Wunderground v.1.15,2013-03-23 17:00:00,
2013-03-23 12:10:00,35.9,23.4,30.12,NE,50,7.0,7.0,60,0.00,,,0.00,355,Wunderground v.1.15,2013-03-23 17:10:00,
2013-03-23 12:20:00,36.0,23.8,30.11,NE,39,8.0,8.0,61,0.00,,,0.00,420,Wunderground v.1.15,2013-03-23 17:20:00,
2013-03-23 12:30:00,36.5,23.5,30.11,NE,49,9.0,12.0,59,0.00,,,0.00,425,Wunderground v.1.15,2013-03-23 17:30:00,
2013-03-23 12:40:00,36.3,22.1,30.09,NE,45,11.0,11.0,56,0.00,,,0.00,302,Wunderground v.1.15,2013-03-23 17:40:00,
2013-03-23 12:50:00,36.2,23.2,30.09,NE,36,9.0,9.0,59,0.00,,,0.00,306,Wunderground v.1.15,2013-03-23 17:50:00,
2013-03-23 13:00:00,36.8,23.4,30.09,NE,36,10.0,12.0,58,0.00,,,0.00,330,Wunderground v.1.15,2013-03-23 18:00:00,
2013-03-23 13:10:00,36.8,23.4,30.08,NE,36,12.0,12.0,58,0.00,,,0.00,339,Wunderground v.1.15,2013-03-23 18:10:00,
2013-03-23 13:20:00,36.8,23.4,30.08,NE,39,11.0,13.0,58,0.00,,,0.00,332,Wunderground v.1.15,2013-03-23 18:20:00,
2013-03-23 13:30:00,36.9,23.5,30.08,ENE,68,12.0,12.0,58,0.00,,,0.00,376,Wunderground v.1.15,2013-03-23 18:30:00,
2013-03-23 13:40:00,36.9,22.7,30.08,ENE,57,11.0,11.0,56,0.00,,,0.00,352,Wunderground v.1.15,2013-03-23 18:40:00,
2013-03-23 13:50:00,36.9,22.2,30.08,ENE,57,12.0,12.0,55,0.00,,,0.00,329,Wunderground v.1.15,2013-03-23 18:50:00,
2013-03-23 14:00:00,36.6,22.4,30.08,NE,36,11.0,13.0,56,0.00,,,0.00,257,Wunderground v.1.15,2013-03-23 19:00:00,
2013-03-23 14:10:00,36.9,23.1,30.06,ENE,61,11.0,12.0,57,0.00,,,0.00,341,Wunderground v.1.15,2013-03-23 19:10:00,
2013-03-23 14:20:00,37.0,23.2,30.06,ENE,64,10.0,10.0,57,0.00,,,0.00,360,Wunderground v.1.15,2013-03-23 19:20:00,
2013-03-23 14:30:00,37.2,23.8,30.06,NE,46,12.0,14.0,58,0.00,,,0.00,301,Wunderground v.1.15,2013-03-23 19:30:00,
2013-03-23 14:40:00,36.8,23.8,30.06,ENE,63,10.0,10.0,59,0.00,,,0.00,214,Wunderground v.1.15,2013-03-23 19:40:00,
2013-03-23 14:50:00,36.0,23.8,30.06,NE,40,9.0,12.0,61,0.00,,,0.00,169,Wunderground v.1.15,2013-03-23 19:50:00,
2013-03-23 15:00:00,35.6,25.7,30.06,NE,34,10.0,13.0,67,0.00,,,0.00,178,Wunderground v.1.15,2013-03-23 20:00:00,
2013-03-23 15:10:00,35.0,25.9,30.05,NE,40,10.0,10.0,69,0.00,,,0.00,98,Wunderground v.1.15,2013-03-23 20:10:00,
2013-03-23 15:20:00,34.6,26.8,30.05,NNE,24,8.0,9.0,73,0.00,,,0.00,97,Wunderground v.1.15,2013-03-23 20:20:00,
2013-03-23 15:30:00,34.3,26.9,30.05,North,360,8.0,11.0,74,0.00,,,0.00,155,Wunderground v.1.15,2013-03-23 20:30:00,
2013-03-23 15:40:00,34.0,27.9,30.05,NNE,30,8.0,11.0,78,0.00,,,0.00,139,Wunderground v.1.15,2013-03-23 20:40:00,
2013-03-23 15:50:00,33.5,27.7,30.05,NE,42,8.0,8.0,79,0.00,,,0.00,141,Wunderground v.1.15,2013-03-23 20:50:00,
2013-03-23 16:00:00,33.2,28.3,30.05,NNE,31,7.0,7.0,82,0.00,,,0.00,120,Wunderground v.1.15,2013-03-23 21:00:00,
2013-03-23 16:10:00,32.4,28.1,30.05,NNE,27,8.0,8.0,84,0.00,,,0.00,125,Wunderground v.1.15,2013-03-23 21:10:00,
2013-03-23 16:20:00,32.1,28.7,30.06,NNE,26,7.0,7.0,87,0.00,,,0.00,153,Wunderground v.1.15,2013-03-23 21:20:00,
2013-03-23 16:30:00,31.9,28.8,30.06,NNE,26,6.0,6.0,88,0.00,,,0.00,88,Wunderground v.1.15,2013-03-23 21:30:00,
2013-03-23 16:40:00,31.9,29.0,30.06,NNE,33,6.0,6.0,89,0.00,,,0.00,107,Wunderground v.1.15,2013-03-23 21:40:00,
2013-03-23 16:49:00,31.9,29.3,30.06,NNE,26,5.0,6.0,90,0.00,,,0.00,111,Wunderground v.1.15,2013-03-23 21:49:00,
2013-03-23 17:00:00,31.8,29.2,30.06,NNE,31,7.0,7.0,90,0.00,,,0.00,148,Wunderground v.1.15,2013-03-23 22:00:00,
2013-03-23 17:10:00,31.8,29.5,30.06,NNE,32,7.0,7.0,91,0.00,,,0.00,116,Wunderground v.1.15,2013-03-23 22:10:00,
2013-03-23 17:20:00,31.5,29.2,30.06,NNE,13,9.0,9.0,91,0.00,,,0.00,77,Wunderground v.1.15,2013-03-23 22:20:00,
2013-03-23 17:30:00,31.3,29.0,30.06,NNE,13,9.0,9.0,91,0.00,,,0.00,81,Wunderground v.1.15,2013-03-23 22:30:00,
2013-03-23 17:39:00,31.2,28.9,30.07,NNE,18,8.0,8.0,91,0.00,,,0.00,70,Wunderground v.1.15,2013-03-23 22:39:00,
2013-03-23 17:50:00,31.0,28.9,30.07,NNE,21,8.0,9.0,92,0.00,,,0.00,76,Wunderground v.1.15,2013-03-23 22:50:00,
2013-03-23 18:00:00,30.9,28.9,30.07,NNE,30,9.0,9.0,92,0.00,,,0.00,77,Wunderground v.1.15,2013-03-23 23:00:00,
2013-03-23 18:10:00,30.9,28.9,30.07,NNE,27,7.0,7.0,92,0.00,,,0.00,54,Wunderground v.1.15,2013-03-23 23:10:00,
2013-03-23 18:20:00,30.9,28.9,30.07,NE,42,6.0,11.0,92,0.00,,,0.00,56,Wunderground v.1.15,2013-03-23 23:20:00,
2013-03-23 18:30:00,30.7,28.7,30.07,NE,38,8.0,10.0,92,0.00,,,0.00,49,Wunderground v.1.15,2013-03-23 23:30:00,
2013-03-23 18:40:00,30.7,28.7,30.07,NNE,32,8.0,8.0,92,0.00,,,0.00,39,Wunderground v.1.15,2013-03-23 23:40:00,
2013-03-23 18:50:00,30.7,28.7,30.08,NNE,24,8.0,10.0,92,0.00,,,0.00,23,Wunderground v.1.15,2013-03-23 23:50:00,
2013-03-23 19:00:00,30.7,28.7,30.08,NNE,16,6.0,6.0,92,0.00,,,0.00,5,Wunderground v.1.15,2013-03-24 00:00:00,
2013-03-23 19:10:00,30.4,28.4,30.08,NNW,336,6.0,9.0,92,0.00,,,0.00,12,Wunderground v.1.15,2013-03-24 00:10:00,
2013-03-23 19:20:00,30.3,28.0,30.09,NNE,23,9.0,9.0,91,0.00,,,0.00,9,Wunderground v.1.15,2013-03-24 00:20:00,
2013-03-23 19:30:00,30.3,28.0,30.09,NNE,12,7.0,7.0,91,0.00,,,0.00,5,Wunderground v.1.15,2013-03-24 00:30:00,
2013-03-23 19:39:00,30.3,28.0,30.09,NE,34,5.0,5.0,91,0.00,,,0.00,0,Wunderground v.1.15,2013-03-24 00:39:00,
2013-03-23 19:50:00,30.3,28.3,30.10,NNE,24,5.0,6.0,92,0.00,,,0.00,0,Wunderground v.1.15,2013-03-24 00:50:00,
2013-03-23 20:00:00,30.3,28.3,30.10,North,5,3.0,5.0,92,0.00,,,0.00,0,Wunderground v.1.15,2013-03-24 01:00:00,
2013-03-23 20:10:00,29.7,27.7,30.11,NNE,13,8.0,11.0,92,0.00,,,0.00,0,Wunderground v.1.15,2013-03-24 01:10:00,
2013-03-23 20:20:00,29.4,27.4,30.11,NNE,23,9.0,9.0,92,0.00,,,0.00,0,Wunderground v.1.15,2013-03-24 01:20:00,
2013-03-23 20:30:00,29.1,27.1,30.11,NNE,30,9.0,14.0,92,0.00,,,0.00,0,Wunderground v.1.15,2013-03-24 01:30:00,
2013-03-23 20:40:00,29.1,27.1,30.11,NNE,28,9.0,10.0,92,0.00,,,0.00,0,Wunderground v.1.15,2013-03-24 01:40:00,
2013-03-23 20:50:00,29.1,27.1,30.11,NNE,29,9.0,10.0,92,0.00,,,0.00,0,Wunderground v.1.15,2013-03-24 01:50:00,
2013-03-23 21:00:00,29.1,27.1,30.11,NNE,26,8.0,8.0,92,0.00,,,0.00,0,Wunderground v.1.15,2013-03-24 02:00:00,
2013-03-23 21:10:00,29.1,27.1,30.10,NNE,15,7.0,9.0,92,0.00,,,0.00,0,Wunderground v.1.15,2013-03-24 02:10:00,
2013-03-23 21:20:00,28.8,26.8,30.10,NNE,20,10.0,10.0,92,0.00,,,0.00,0,Wunderground v.1.15,2013-03-24 02:20:00,
2013-03-23 21:30:00,28.5,26.2,30.10,NE,41,10.0,10.0,91,0.00,,,0.00,0,Wunderground v.1.15,2013-03-24 02:30:00,
2013-03-23 21:40:00,28.4,26.1,30.10,NNE,32,8.0,8.0,91,0.00,,,0.00,0,Wunderground v.1.15,2013-03-24 02:40:00,
2013-03-23 22:00:00,28.1,25.5,30.09,NNE,23,8.0,11.0,90,0.00,,,0.00,0,Wunderground v.1.15,2013-03-24 03:00:00,
2013-03-23 22:10:00,28.2,25.6,30.09,NNE,31,10.0,10.0,90,0.00,,,0.00,0,Wunderground v.1.15,2013-03-24 03:10:00,
2013-03-23 22:20:00,28.2,25.4,30.09,NNE,28,8.0,9.0,89,0.00,,,0.00,0,Wunderground v.1.15,2013-03-24 03:20:00,
2013-03-23 22:30:00,28.1,25.3,30.09,NNE,30,8.0,8.0,89,0.00,,,0.00,0,Wunderground v.1.15,2013-03-24 03:30:00,
2013-03-23 22:40:00,27.9,24.8,30.10,NNE,21,7.0,13.0,88,0.00,,,0.00,0,Wunderground v.1.15,2013-03-24 03:40:00,
2013-03-23 22:50:00,28.1,25.0,30.10,North,5,8.0,8.0,88,0.00,,,0.00,0,Wunderground v.1.15,2013-03-24 03:50:00,
2013-03-23 23:00:00,28.2,25.1,30.10,North,360,6.0,10.0,88,0.00,,,0.00,0,Wunderground v.1.15,2013-03-24 04:00:00,
2013-03-23 23:10:00,28.4,25.0,30.09,North,355,7.0,9.0,87,0.00,,,0.00,0,Wunderground v.1.15,2013-03-24 04:10:00,
2013-03-23 23:20:00,28.4,25.3,30.08,NNE,13,8.0,10.0,88,0.00,,,0.00,0,Wunderground v.1.15,2013-03-24 04:20:00,
2013-03-23 23:30:00,28.7,25.6,30.08,NNE,22,9.0,9.0,88,0.00,,,0.00,0,Wunderground v.1.15,2013-03-24 04:30:00,
2013-03-23 23:40:00,28.7,25.6,30.08,North,9,6.0,6.0,88,0.00,,,0.00,0,Wunderground v.1.15,2013-03-24 04:40:00,
2013-03-23 23:49:00,28.8,25.4,30.09,NNE,21,5.0,5.0,87,0.00,,,0.00,0,Wunderground v.1.15,2013-03-24 04:49:00,